Lake Clear, NY

2:19 PM EDT on August 23, 2014 (GMT -0400)
Adirondack Regional | Change Station
CLOSE
Current Station
Airport
Location: Saranac Lake,
Elevation: 1660 ft
Nearby Weather Stations

Elev 1660 ft 44.39 °N, 74.21 °W | Updated 28 minutes ago

Scattered Clouds
Scattered Clouds
70 °F
Feels Like 70 °F
N
10
Wind Variable Wind from ENE

Today
High -- | Low -- °F
--% Chance of Precip.
Yesterday
High -- | Low -- °F
Precip. -- in
6:09 AM 7:48 PM
Waning Crescent, 3% visible
Pressure 30.13 in
Visibility 10.0 miles
Clouds Few 4500 ft
Scattered Clouds 6000 ft
Dew Point 53 °F
Humidity 55%
Rainfall 0.00 in
Snow Depth Not available.
UV 7 out of 12
Pollen 7.50 out of 12
Air Quality Not available.
Flu Activity Not available.
METAR KSLK 231751Z AUTO 06009KT 10SM FEW045 SCT060 21/12 A3014 RMK AO2 SLP203 T02110117 10228 20150 57003

More Conditions Fewer Conditions

Pressure 30.13 in
Visibility 10.0 miles
Clouds Few 4500 ft
Scattered Clouds 6000 ft
Dew Point 53 °F
Humidity 55%
Rainfall 0.00 in
Snow Depth Not available.
UV 7 out of 12
Pollen 7.50 out of 12
Air Quality Not available.
Flu Activity Not available.
METAR KSLK 231751Z AUTO 06009KT 10SM FEW045 SCT060 21/12 A3014 RMK AO2 SLP203 T02110117 10228 20150 57003

More Conditions Fewer Conditions

10-Day Weather Forecast

Almanac

Astronomy

Aug. 23, 2014 Rise Set
Actual Time 6:09 AM EDT 7:48 PM EDT
Civil Twilight 5:38 AM EDT 8:19 PM EDT
Nautical Twilight 5:01 AM EDT 8:56 PM EDT
Astronomical Twilight 4:20 AM EDT 9:36 PM EDT
Moon 4:21 AM EDT 6:32 PM EDT
Length of Visible Light 14h 41m
Length of Day
13h 39m
Tomorrow will be 2m 52s shorter.
Waning Crescent, 3% of the Moon is Illuminated
Today
Waning Crescent
Aug 25
New
Sep 2
First Quarter
Sep 8
Full
Sep 15
Last Quarter

Today's Extremes

State Highs State Lows

Community

WunderPhotos

Upload Photos

1,746,551 photos uploaded!

WunderBlogs® & News

By Dr. Jeff Masters
Director of Meteorology, Weather Underground
By Kari Strenfel
Meteorologist, Weather Underground
By Christopher C. Burt
Weather Historian, Weather Underground
August 23, 2014
August 23, 2014
August 23, 2014

Nearby

Air Quality

  Air Quality AQ Index Pollutant
Saturday Good
OZONE
Saturday Good
PM2.5
Sunday Good
OZONE
Sunday Good
PM2.5
Monday Good
OZONE
Monday Good
PM2.5

Snow Depth

Station Depth Elevation
No new snow has been reported.

Earthquake Activity

City Distance Mag. Time & Date
No recent earthquake activity has been reported nearby.
Minimum magnitude displayed is 2.5.

Coastal Water Temperatures

Place Temperature
No Stations Reporting

Nearby Weather Stations